sensor_id;sensor_type;location;lat;lon;timestamp;P1;durP1;ratioP1;P2;durP2;ratioP2
49764;SDS011;35657;51.204;-4.130;2023-03-01T00:02:03;4.97;;;3.15;;
49764;SDS011;35657;51.204;-4.130;2023-03-01T00:04:29;7.60;;;3.67;;
49764;SDS011;35657;51.204;-4.130;2023-03-01T00:06:55;7.50;;;3.10;;
49764;SDS011;35657;51.204;-4.130;2023-03-01T00:09:21;4.45;;;2.63;;
49764;SDS011;35657;51.204;-4.130;2023-03-01T00:11:47;6.25;;;2.58;;
49764;SDS011;35657;51.204;-4.130;2023-03-01T00:14:13;3.90;;;3.00;;
49764;SDS011;35657;51.204;-4.130;2023-03-01T00:16:41;3.80;;;2.17;;
49764;SDS011;35657;51.204;-4.130;2023-03-01T00:19:12;4.18;;;2.88;;
49764;SDS011;35657;51.204;-4.130;2023-03-01T00:21:43;7.05;;;3.28;;
49764;SDS011;35657;51.204;-4.130;2023-03-01T00:24:09;5.57;;;3.92;;
49764;SDS011;35657;51.204;-4.130;2023-03-01T00:26:37;6.72;;;4.10;;
49764;SDS011;35657;51.204;-4.130;2023-03-01T00:29:02;6.68;;;4.78;;
49764;SDS011;35657;51.204;-4.130;2023-03-01T00:31:29;7.45;;;4.10;;
49764;SDS011;35657;51.204;-4.130;2023-03-01T00:33:57;5.63;;;3.92;;
49764;SDS011;35657;51.204;-4.130;2023-03-01T00:36:29;5.30;;;3.47;;
49764;SDS011;35657;51.204;-4.130;2023-03-01T00:38:56;7.30;;;3.50;;
49764;SDS011;35657;51.204;-4.130;2023-03-01T00:41:22;6.97;;;3.95;;
49764;SDS011;35657;51.204;-4.130;2023-03-01T00:43:49;4.53;;;3.03;;
49764;SDS011;35657;51.204;-4.130;2023-03-01T00:46:16;5.43;;;3.03;;
49764;SDS011;35657;51.204;-4.130;2023-03-01T00:48:43;7.10;;;3.40;;
49764;SDS011;35657;51.204;-4.130;2023-03-01T00:53:41;7.38;;;2.67;;
49764;SDS011;35657;51.204;-4.130;2023-03-01T00:56:08;5.75;;;3.03;;
49764;SDS011;35657;51.204;-4.130;2023-03-01T00:58:35;4.43;;;2.72;;
49764;SDS011;35657;51.204;-4.130;2023-03-01T01:01:06;5.45;;;3.47;;
49764;SDS011;35657;51.204;-4.130;2023-03-01T01:03:43;5.95;;;3.20;;
49764;SDS011;35657;51.204;-4.130;2023-03-01T01:06:14;5.45;;;2.67;;
49764;SDS011;35657;51.204;-4.130;2023-03-01T01:08:44;3.65;;;2.38;;
49764;SDS011;35657;51.204;-4.130;2023-03-01T01:11:10;5.68;;;3.78;;
49764;SDS011;35657;51.204;-4.130;2023-03-01T01:13:38;5.78;;;3.25;;
49764;SDS011;35657;51.204;-4.130;2023-03-01T01:16:04;5.53;;;3.55;;
49764;SDS011;35657;51.204;-4.130;2023-03-01T01:18:31;6.03;;;3.13;;
49764;SDS011;35657;51.204;-4.130;2023-03-01T01:20:57;10.48;;;3.75;;
49764;SDS011;35657;51.204;-4.130;2023-03-01T01:23:23;5.20;;;3.28;;
49764;SDS011;35657;51.204;-4.130;2023-03-01T01:25:48;6.35;;;3.33;;
49764;SDS011;35657;51.204;-4.130;2023-03-01T01:28:14;5.00;;;2.40;;
49764;SDS011;35657;51.204;-4.130;2023-03-01T01:30:40;5.38;;;3.47;;
49764;SDS011;35657;51.204;-4.130;2023-03-01T01:33:05;6.68;;;4.05;;
49764;SDS011;35657;51.204;-4.130;2023-03-01T01:35:31;6.55;;;3.50;;
49764;SDS011;35657;51.204;-4.130;2023-03-01T01:37:57;7.38;;;3.80;;
49764;SDS011;35657;51.204;-4.130;2023-03-01T01:40:22;7.05;;;3.75;;
49764;SDS011;35657;51.204;-4.130;2023-03-01T01:42:48;7.35;;;3.70;;
49764;SDS011;35657;51.204;-4.130;2023-03-01T01:45:31;6.10;;;3.67;;
49764;SDS011;35657;51.204;-4.130;2023-03-01T01:50:27;6.95;;;3.80;;
49764;SDS011;35657;51.204;-4.130;2023-03-01T01:53:03;6.35;;;3.53;;
49764;SDS011;35657;51.204;-4.130;2023-03-01T01:55:31;4.68;;;2.88;;
49764;SDS011;35657;51.204;-4.130;2023-03-01T01:57:58;4.32;;;2.58;;
49764;SDS011;35657;51.204;-4.130;2023-03-01T02:00:28;4.68;;;2.20;;
49764;SDS011;35657;51.204;-4.130;2023-03-01T02:03:11;6.03;;;2.38;;
49764;SDS011;35657;51.204;-4.130;2023-03-01T02:05:47;6.10;;;2.38;;
49764;SDS011;35657;51.204;-4.130;2023-03-01T02:08:19;7.30;;;3.50;;
49764;SDS011;35657;51.204;-4.130;2023-03-01T02:10:45;4.28;;;2.97;;
49764;SDS011;35657;51.204;-4.130;2023-03-01T02:13:13;8.05;;;3.13;;
49764;SDS011;35657;51.204;-4.130;2023-03-01T02:15:39;6.03;;;2.80;;
49764;SDS011;35657;51.204;-4.130;2023-03-01T02:18:06;4.85;;;2.47;;
49764;SDS011;35657;51.204;-4.130;2023-03-01T02:23:36;7.22;;;3.08;;
49764;SDS011;35657;51.204;-4.130;2023-03-01T02:28:38;5.68;;;3.47;;
49764;SDS011;35657;51.204;-4.130;2023-03-01T02:31:06;5.47;;;3.70;;
49764;SDS011;35657;51.204;-4.130;2023-03-01T02:33:52;5.35;;;3.42;;
49764;SDS011;35657;51.204;-4.130;2023-03-01T02:36:20;7.38;;;3.15;;
49764;SDS011;35657;51.204;-4.130;2023-03-01T02:38:50;6.65;;;3.65;;
49764;SDS011;35657;51.204;-4.130;2023-03-01T02:41:19;4.65;;;2.90;;
49764;SDS011;35657;51.204;-4.130;2023-03-01T02:43:46;7.45;;;3.72;;
49764;SDS011;35657;51.204;-4.130;2023-03-01T02:46:15;4.63;;;2.55;;
49764;SDS011;35657;51.204;-4.130;2023-03-01T02:48:50;4.93;;;2.67;;
49764;SDS011;35657;51.204;-4.130;2023-03-01T02:54:04;3.38;;;1.90;;
49764;SDS011;35657;51.204;-4.130;2023-03-01T02:56:38;2.13;;;0.90;;
49764;SDS011;35657;51.204;-4.130;2023-03-01T02:59:05;5.55;;;1.00;;
49764;SDS011;35657;51.204;-4.130;2023-03-01T03:01:32;2.67;;;0.80;;
49764;SDS011;35657;51.204;-4.130;2023-03-01T03:04:05;3.15;;;0.85;;
49764;SDS011;35657;51.204;-4.130;2023-03-01T03:06:31;4.88;;;1.55;;
49764;SDS011;35657;51.204;-4.130;2023-03-01T03:08:58;2.45;;;1.15;;
49764;SDS011;35657;51.204;-4.130;2023-03-01T03:11:24;2.97;;;1.20;;
49764;SDS011;35657;51.204;-4.130;2023-03-01T03:13:50;1.73;;;0.82;;
49764;SDS011;35657;51.204;-4.130;2023-03-01T03:16:17;3.25;;;1.20;;
49764;SDS011;35657;51.204;-4.130;2023-03-01T03:18:44;2.08;;;1.05;;
49764;SDS011;35657;51.204;-4.130;2023-03-01T03:21:10;1.73;;;1.00;;
49764;SDS011;35657;51.204;-4.130;2023-03-01T03:23:37;2.05;;;0.90;;
49764;SDS011;35657;51.204;-4.130;2023-03-01T03:26:04;3.15;;;1.20;;
49764;SDS011;35657;51.204;-4.130;2023-03-01T03:28:31;12.60;;;0.85;;
49764;SDS011;35657;51.204;-4.130;2023-03-01T03:30:58;2.20;;;1.00;;
49764;SDS011;35657;51.204;-4.130;2023-03-01T03:33:28;2.90;;;0.75;;
49764;SDS011;35657;51.204;-4.130;2023-03-01T03:35:54;1.75;;;0.70;;
49764;SDS011;35657;51.204;-4.130;2023-03-01T03:38:20;3.08;;;0.70;;
49764;SDS011;35657;51.204;-4.130;2023-03-01T03:40:50;1.67;;;0.80;;
49764;SDS011;35657;51.204;-4.130;2023-03-01T03:43:36;3.00;;;0.80;;
49764;SDS011;35657;51.204;-4.130;2023-03-01T03:46:02;1.42;;;0.52;;
49764;SDS011;35657;51.204;-4.130;2023-03-01T03:48:31;2.08;;;0.60;;
49764;SDS011;35657;51.204;-4.130;2023-03-01T03:51:00;2.67;;;0.70;;
49764;SDS011;35657;51.204;-4.130;2023-03-01T03:53:27;10.02;;;0.70;;
49764;SDS011;35657;51.204;-4.130;2023-03-01T03:55:54;3.25;;;0.80;;
49764;SDS011;35657;51.204;-4.130;2023-03-01T03:58:21;4.22;;;0.70;;
49764;SDS011;35657;51.204;-4.130;2023-03-01T04:00:51;3.20;;;0.50;;
49764;SDS011;35657;51.204;-4.130;2023-03-01T04:03:18;1.83;;;0.60;;
49764;SDS011;35657;51.204;-4.130;2023-03-01T04:05:45;1.80;;;0.57;;
49764;SDS011;35657;51.204;-4.130;2023-03-01T04:08:11;4.32;;;0.60;;
49764;SDS011;35657;51.204;-4.130;2023-03-01T04:10:44;0.90;;;0.45;;
49764;SDS011;35657;51.204;-4.130;2023-03-01T04:13:13;2.45;;;0.73;;
49764;SDS011;35657;51.204;-4.130;2023-03-01T04:15:41;4.13;;;0.70;;
49764;SDS011;35657;51.204;-4.130;2023-03-01T04:18:13;4.50;;;0.98;;
49764;SDS011;35657;51.204;-4.130;2023-03-01T04:20:40;3.58;;;0.80;;
49764;SDS011;35657;51.204;-4.130;2023-03-01T04:23:17;3.38;;;0.80;;
49764;SDS011;35657;51.204;-4.130;2023-03-01T04:25:46;3.90;;;0.98;;
49764;SDS011;35657;51.204;-4.130;2023-03-01T04:28:19;2.90;;;0.98;;
49764;SDS011;35657;51.204;-4.130;2023-03-01T04:30:49;4.80;;;0.93;;
49764;SDS011;35657;51.204;-4.130;2023-03-01T04:33:16;3.10;;;0.50;;
49764;SDS011;35657;51.204;-4.130;2023-03-01T04:35:42;2.33;;;0.63;;
49764;SDS011;35657;51.204;-4.130;2023-03-01T04:38:08;4.20;;;0.90;;
49764;SDS011;35657;51.204;-4.130;2023-03-01T04:40:34;2.88;;;0.70;;
49764;SDS011;35657;51.204;-4.130;2023-03-01T04:43:00;5.45;;;0.77;;
49764;SDS011;35657;51.204;-4.130;2023-03-01T04:45:27;3.20;;;0.70;;
49764;SDS011;35657;51.204;-4.130;2023-03-01T04:47:53;3.75;;;0.88;;
49764;SDS011;35657;51.204;-4.130;2023-03-01T04:50:19;2.65;;;0.77;;
49764;SDS011;35657;51.204;-4.130;2023-03-01T04:52:48;3.22;;;0.60;;
49764;SDS011;35657;51.204;-4.130;2023-03-01T04:55:14;1.55;;;0.80;;
49764;SDS011;35657;51.204;-4.130;2023-03-01T04:57:40;1.15;;;0.52;;
49764;SDS011;35657;51.204;-4.130;2023-03-01T05:00:07;5.20;;;0.60;;
49764;SDS011;35657;51.204;-4.130;2023-03-01T05:02:51;4.15;;;1.05;;
49764;SDS011;35657;51.204;-4.130;2023-03-01T05:05:21;5.03;;;1.20;;
49764;SDS011;35657;51.204;-4.130;2023-03-01T05:07:52;3.88;;;0.85;;
49764;SDS011;35657;51.204;-4.130;2023-03-01T05:10:22;5.20;;;1.20;;
49764;SDS011;35657;51.204;-4.130;2023-03-01T05:12:48;1.23;;;0.60;;
49764;SDS011;35657;51.204;-4.130;2023-03-01T05:15:14;1.38;;;0.75;;
49764;SDS011;35657;51.204;-4.130;2023-03-01T05:17:40;2.13;;;0.50;;
49764;SDS011;35657;51.204;-4.130;2023-03-01T05:20:06;1.30;;;1.00;;
49764;SDS011;35657;51.204;-4.130;2023-03-01T05:22:34;1.23;;;0.85;;
49764;SDS011;35657;51.204;-4.130;2023-03-01T05:25:00;5.18;;;1.08;;
49764;SDS011;35657;51.204;-4.130;2023-03-01T05:27:26;2.50;;;1.25;;
49764;SDS011;35657;51.204;-4.130;2023-03-01T05:29:52;1.95;;;0.82;;
49764;SDS011;35657;51.204;-4.130;2023-03-01T05:32:18;3.17;;;1.10;;
49764;SDS011;35657;51.204;-4.130;2023-03-01T05:34:43;1.83;;;1.00;;
49764;SDS011;35657;51.204;-4.130;2023-03-01T05:37:11;11.95;;;1.40;;
49764;SDS011;35657;51.204;-4.130;2023-03-01T05:39:38;3.83;;;1.23;;
49764;SDS011;35657;51.204;-4.130;2023-03-01T05:42:04;2.85;;;1.27;;
49764;SDS011;35657;51.204;-4.130;2023-03-01T05:44:30;1.70;;;0.88;;
49764;SDS011;35657;51.204;-4.130;2023-03-01T05:46:56;1.95;;;0.98;;
49764;SDS011;35657;51.204;-4.130;2023-03-01T05:49:22;1.77;;;0.73;;
49764;SDS011;35657;51.204;-4.130;2023-03-01T05:51:50;3.60;;;1.10;;
49764;SDS011;35657;51.204;-4.130;2023-03-01T05:54:17;2.45;;;1.35;;
49764;SDS011;35657;51.204;-4.130;2023-03-01T05:56:44;2.13;;;1.10;;
49764;SDS011;35657;51.204;-4.130;2023-03-01T05:59:10;2.35;;;1.40;;
49764;SDS011;35657;51.204;-4.130;2023-03-01T06:01:36;2.55;;;1.10;;
49764;SDS011;35657;51.204;-4.130;2023-03-01T06:04:03;2.83;;;1.40;;
49764;SDS011;35657;51.204;-4.130;2023-03-01T06:06:29;2.95;;;1.08;;
49764;SDS011;35657;51.204;-4.130;2023-03-01T06:08:59;4.47;;;1.45;;
49764;SDS011;35657;51.204;-4.130;2023-03-01T06:11:24;2.78;;;1.23;;
49764;SDS011;35657;51.204;-4.130;2023-03-01T06:13:50;2.95;;;1.27;;
49764;SDS011;35657;51.204;-4.130;2023-03-01T06:16:16;2.20;;;1.33;;
49764;SDS011;35657;51.204;-4.130;2023-03-01T06:18:42;4.85;;;1.60;;
49764;SDS011;35657;51.204;-4.130;2023-03-01T06:21:08;2.97;;;1.20;;
49764;SDS011;35657;51.204;-4.130;2023-03-01T06:23:34;4.47;;;1.55;;
49764;SDS011;35657;51.204;-4.130;2023-03-01T06:26:00;3.92;;;1.55;;
49764;SDS011;35657;51.204;-4.130;2023-03-01T06:28:30;2.28;;;1.40;;
49764;SDS011;35657;51.204;-4.130;2023-03-01T06:30:55;4.38;;;1.15;;
49764;SDS011;35657;51.204;-4.130;2023-03-01T06:33:21;4.13;;;0.95;;
49764;SDS011;35657;51.204;-4.130;2023-03-01T06:35:49;3.90;;;1.15;;
49764;SDS011;35657;51.204;-4.130;2023-03-01T06:38:15;2.75;;;1.23;;
49764;SDS011;35657;51.204;-4.130;2023-03-01T06:40:44;2.28;;;1.05;;
49764;SDS011;35657;51.204;-4.130;2023-03-01T06:43:16;3.58;;;1.38;;
49764;SDS011;35657;51.204;-4.130;2023-03-01T06:45:42;3.28;;;0.60;;
49764;SDS011;35657;51.204;-4.130;2023-03-01T06:48:08;4.20;;;1.20;;
49764;SDS011;35657;51.204;-4.130;2023-03-01T06:50:34;3.40;;;0.60;;
49764;SDS011;35657;51.204;-4.130;2023-03-01T06:53:00;2.03;;;0.98;;
49764;SDS011;35657;51.204;-4.130;2023-03-01T06:55:26;2.20;;;1.00;;
49764;SDS011;35657;51.204;-4.130;2023-03-01T06:57:55;5.60;;;1.00;;
49764;SDS011;35657;51.204;-4.130;2023-03-01T07:00:25;1.58;;;1.00;;
49764;SDS011;35657;51.204;-4.130;2023-03-01T07:02:52;2.15;;;1.10;;
49764;SDS011;35657;51.204;-4.130;2023-03-01T07:05:18;2.42;;;1.20;;
49764;SDS011;35657;51.204;-4.130;2023-03-01T07:07:44;1.90;;;1.17;;
49764;SDS011;35657;51.204;-4.130;2023-03-01T07:10:10;3.53;;;0.85;;
49764;SDS011;35657;51.204;-4.130;2023-03-01T07:12:36;3.85;;;1.30;;
49764;SDS011;35657;51.204;-4.130;2023-03-01T07:15:02;3.47;;;1.23;;
49764;SDS011;35657;51.204;-4.130;2023-03-01T07:17:28;4.05;;;1.30;;
49764;SDS011;35657;51.204;-4.130;2023-03-01T07:19:56;3.78;;;1.80;;
49764;SDS011;35657;51.204;-4.130;2023-03-01T07:22:22;1.48;;;1.17;;
49764;SDS011;35657;51.204;-4.130;2023-03-01T07:24:48;4.43;;;1.70;;
49764;SDS011;35657;51.204;-4.130;2023-03-01T07:27:13;4.15;;;1.48;;
49764;SDS011;35657;51.204;-4.130;2023-03-01T07:29:39;2.28;;;1.38;;
49764;SDS011;35657;51.204;-4.130;2023-03-01T07:32:05;2.22;;;0.70;;
49764;SDS011;35657;51.204;-4.130;2023-03-01T07:34:31;5.05;;;1.27;;
49764;SDS011;35657;51.204;-4.130;2023-03-01T07:36:57;2.15;;;1.40;;
49764;SDS011;35657;51.204;-4.130;2023-03-01T07:39:23;1.75;;;1.10;;
49764;SDS011;35657;51.204;-4.130;2023-03-01T07:41:49;2.72;;;1.40;;
49764;SDS011;35657;51.204;-4.130;2023-03-01T07:44:15;3.60;;;1.10;;
49764;SDS011;35657;51.204;-4.130;2023-03-01T07:46:42;2.92;;;1.35;;
49764;SDS011;35657;51.204;-4.130;2023-03-01T07:49:08;3.28;;;1.70;;
49764;SDS011;35657;51.204;-4.130;2023-03-01T07:51:34;4.55;;;2.08;;
49764;SDS011;35657;51.204;-4.130;2023-03-01T07:53:59;4.75;;;1.65;;
49764;SDS011;35657;51.204;-4.130;2023-03-01T07:56:25;4.60;;;1.50;;
49764;SDS011;35657;51.204;-4.130;2023-03-01T07:58:51;3.72;;;1.60;;
49764;SDS011;35657;51.204;-4.130;2023-03-01T08:01:17;4.60;;;1.65;;
49764;SDS011;35657;51.204;-4.130;2023-03-01T08:03:45;3.17;;;1.50;;
49764;SDS011;35657;51.204;-4.130;2023-03-01T08:06:11;5.85;;;1.70;;
49764;SDS011;35657;51.204;-4.130;2023-03-01T08:08:38;4.38;;;1.70;;
49764;SDS011;35657;51.204;-4.130;2023-03-01T08:11:05;4.60;;;1.20;;
49764;SDS011;35657;51.204;-4.130;2023-03-01T08:13:32;3.95;;;1.77;;
49764;SDS011;35657;51.204;-4.130;2023-03-01T08:16:01;4.80;;;2.03;;
49764;SDS011;35657;51.204;-4.130;2023-03-01T08:18:32;8.68;;;1.52;;
49764;SDS011;35657;51.204;-4.130;2023-03-01T08:21:08;2.95;;;1.67;;
49764;SDS011;35657;51.204;-4.130;2023-03-01T08:23:36;4.28;;;1.63;;
49764;SDS011;35657;51.204;-4.130;2023-03-01T08:26:06;2.13;;;1.52;;
49764;SDS011;35657;51.204;-4.130;2023-03-01T08:28:33;2.90;;;1.52;;
49764;SDS011;35657;51.204;-4.130;2023-03-01T08:30:59;5.20;;;2.17;;
49764;SDS011;35657;51.204;-4.130;2023-03-01T08:33:26;2.53;;;1.77;;
49764;SDS011;35657;51.204;-4.130;2023-03-01T08:35:51;3.13;;;1.70;;
49764;SDS011;35657;51.204;-4.130;2023-03-01T08:38:17;3.38;;;2.20;;
49764;SDS011;35657;51.204;-4.130;2023-03-01T08:40:43;4.43;;;2.22;;
49764;SDS011;35657;51.204;-4.130;2023-03-01T08:43:08;3.97;;;1.95;;
49764;SDS011;35657;51.204;-4.130;2023-03-01T08:45:34;2.95;;;1.80;;
49764;SDS011;35657;51.204;-4.130;2023-03-01T08:48:00;3.40;;;2.15;;
49764;SDS011;35657;51.204;-4.130;2023-03-01T08:50:25;6.90;;;2.55;;
49764;SDS011;35657;51.204;-4.130;2023-03-01T08:52:51;7.53;;;2.60;;
49764;SDS011;35657;51.204;-4.130;2023-03-01T08:55:17;3.17;;;1.98;;
49764;SDS011;35657;51.204;-4.130;2023-03-01T08:57:43;3.20;;;1.92;;
49764;SDS011;35657;51.204;-4.130;2023-03-01T09:00:09;3.50;;;2.00;;
49764;SDS011;35657;51.204;-4.130;2023-03-01T09:02:40;3.33;;;2.00;;
49764;SDS011;35657;51.204;-4.130;2023-03-01T09:05:05;5.95;;;2.47;;
49764;SDS011;35657;51.204;-4.130;2023-03-01T09:07:31;5.55;;;3.17;;
49764;SDS011;35657;51.204;-4.130;2023-03-01T09:09:57;3.88;;;2.58;;
49764;SDS011;35657;51.204;-4.130;2023-03-01T09:12:23;4.30;;;2.42;;
49764;SDS011;35657;51.204;-4.130;2023-03-01T09:14:50;3.97;;;2.10;;
49764;SDS011;35657;51.204;-4.130;2023-03-01T09:17:15;3.35;;;1.45;;
49764;SDS011;35657;51.204;-4.130;2023-03-01T09:19:41;2.40;;;1.35;;
49764;SDS011;35657;51.204;-4.130;2023-03-01T09:22:07;4.32;;;1.60;;
49764;SDS011;35657;51.204;-4.130;2023-03-01T09:24:32;4.47;;;1.42;;
49764;SDS011;35657;51.204;-4.130;2023-03-01T09:26:58;2.70;;;1.70;;
49764;SDS011;35657;51.204;-4.130;2023-03-01T09:29:24;2.10;;;1.52;;
49764;SDS011;35657;51.204;-4.130;2023-03-01T09:31:52;4.40;;;1.98;;
49764;SDS011;35657;51.204;-4.130;2023-03-01T09:34:20;2.00;;;1.50;;
49764;SDS011;35657;51.204;-4.130;2023-03-01T09:36:48;3.70;;;2.20;;
49764;SDS011;35657;51.204;-4.130;2023-03-01T09:39:15;3.05;;;1.70;;
49764;SDS011;35657;51.204;-4.130;2023-03-01T09:42:04;7.32;;;2.45;;
49764;SDS011;35657;51.204;-4.130;2023-03-01T09:49:54;3.47;;;1.60;;
49764;SDS011;35657;51.204;-4.130;2023-03-01T09:53:04;3.00;;;1.50;;
49764;SDS011;35657;51.204;-4.130;2023-03-01T09:58:48;4.47;;;2.80;;
49764;SDS011;35657;51.204;-4.130;2023-03-01T10:06:36;4.88;;;1.70;;
49764;SDS011;35657;51.204;-4.130;2023-03-01T10:09:24;3.28;;;2.40;;
49764;SDS011;35657;51.204;-4.130;2023-03-01T10:11:52;3.03;;;1.50;;
49764;SDS011;35657;51.204;-4.130;2023-03-01T10:17:16;4.72;;;1.88;;
49764;SDS011;35657;51.204;-4.130;2023-03-01T10:19:57;2.17;;;1.30;;
49764;SDS011;35657;51.204;-4.130;2023-03-01T10:22:42;5.65;;;1.63;;
49764;SDS011;35657;51.204;-4.130;2023-03-01T10:25:13;1.83;;;1.17;;
49764;SDS011;35657;51.204;-4.130;2023-03-01T10:27:51;3.38;;;2.20;;
49764;SDS011;35657;51.204;-4.130;2023-03-01T10:30:19;4.00;;;2.00;;
49764;SDS011;35657;51.204;-4.130;2023-03-01T10:32:59;3.80;;;2.08;;
49764;SDS011;35657;51.204;-4.130;2023-03-01T10:35:27;3.15;;;1.42;;
49764;SDS011;35657;51.204;-4.130;2023-03-01T10:38:08;5.57;;;1.50;;
49764;SDS011;35657;51.204;-4.130;2023-03-01T10:40:35;3.10;;;1.67;;
49764;SDS011;35657;51.204;-4.130;2023-03-01T10:43:14;3.35;;;1.83;;
49764;SDS011;35657;51.204;-4.130;2023-03-01T10:45:40;4.47;;;1.40;;
49764;SDS011;35657;51.204;-4.130;2023-03-01T10:50:34;2.33;;;1.23;;
49764;SDS011;35657;51.204;-4.130;2023-03-01T10:53:03;2.35;;;1.75;;
49764;SDS011;35657;51.204;-4.130;2023-03-01T10:55:34;2.35;;;1.67;;
49764;SDS011;35657;51.204;-4.130;2023-03-01T10:58:17;5.18;;;1.65;;
49764;SDS011;35657;51.204;-4.130;2023-03-01T11:00:46;2.78;;;1.95;;
49764;SDS011;35657;51.204;-4.130;2023-03-01T11:03:19;2.15;;;1.90;;
49764;SDS011;35657;51.204;-4.130;2023-03-01T11:08:42;4.15;;;1.33;;
49764;SDS011;35657;51.204;-4.130;2023-03-01T11:16:24;4.43;;;1.42;;
49764;SDS011;35657;51.204;-4.130;2023-03-01T11:24:10;3.25;;;1.30;;
49764;SDS011;35657;51.204;-4.130;2023-03-01T11:26:42;2.65;;;1.30;;
49764;SDS011;35657;51.204;-4.130;2023-03-01T11:29:15;2.05;;;1.20;;
49764;SDS011;35657;51.204;-4.130;2023-03-01T11:31:50;2.40;;;1.10;;
49764;SDS011;35657;51.204;-4.130;2023-03-01T11:34:31;2.90;;;1.40;;
49764;SDS011;35657;51.204;-4.130;2023-03-01T11:37:22;3.03;;;1.60;;
49764;SDS011;35657;51.204;-4.130;2023-03-01T11:40:04;3.80;;;1.30;;
49764;SDS011;35657;51.204;-4.130;2023-03-01T11:42:54;3.45;;;1.65;;
49764;SDS011;35657;51.204;-4.130;2023-03-01T11:45:28;2.28;;;1.70;;
49764;SDS011;35657;51.204;-4.130;2023-03-01T11:48:19;3.53;;;1.65;;
49764;SDS011;35657;51.204;-4.130;2023-03-01T11:50:56;2.95;;;1.88;;
49764;SDS011;35657;51.204;-4.130;2023-03-01T11:53:36;5.95;;;1.40;;
49764;SDS011;35657;51.204;-4.130;2023-03-01T12:04:45;3.08;;;1.27;;
49764;SDS011;35657;51.204;-4.130;2023-03-01T12:07:30;2.67;;;1.73;;
49764;SDS011;35657;51.204;-4.130;2023-03-01T12:10:16;2.83;;;1.63;;
49764;SDS011;35657;51.204;-4.130;2023-03-01T12:18:02;1.15;;;0.88;;
49764;SDS011;35657;51.204;-4.130;2023-03-01T12:20:51;7.10;;;1.80;;
49764;SDS011;35657;51.204;-4.130;2023-03-01T12:23:40;6.93;;;1.67;;
49764;SDS011;35657;51.204;-4.130;2023-03-01T12:26:27;4.90;;;1.35;;
49764;SDS011;35657;51.204;-4.130;2023-03-01T12:31:48;5.00;;;1.25;;
49764;SDS011;35657;51.204;-4.130;2023-03-01T12:51:05;5.75;;;1.55;;
49764;SDS011;35657;51.204;-4.130;2023-03-01T12:53:36;3.13;;;1.30;;
49764;SDS011;35657;51.204;-4.130;2023-03-01T12:56:06;3.38;;;1.60;;
49764;SDS011;35657;51.204;-4.130;2023-03-01T12:58:50;4.22;;;1.50;;
49764;SDS011;35657;51.204;-4.130;2023-03-01T13:04:27;6.50;;;1.70;;
49764;SDS011;35657;51.204;-4.130;2023-03-01T13:09:30;7.00;;;1.40;;
49764;SDS011;35657;51.204;-4.130;2023-03-01T13:12:02;4.05;;;1.98;;
49764;SDS011;35657;51.204;-4.130;2023-03-01T13:16:57;3.05;;;1.50;;
49764;SDS011;35657;51.204;-4.130;2023-03-01T13:21:57;3.97;;;1.48;;
49764;SDS011;35657;51.204;-4.130;2023-03-01T13:24:39;3.42;;;1.50;;
49764;SDS011;35657;51.204;-4.130;2023-03-01T13:32:21;4.18;;;1.25;;
49764;SDS011;35657;51.204;-4.130;2023-03-01T13:34:52;1.77;;;1.23;;
49764;SDS011;35657;51.204;-4.130;2023-03-01T13:37:25;3.25;;;1.00;;
49764;SDS011;35657;51.204;-4.130;2023-03-01T13:40:57;4.57;;;1.73;;
49764;SDS011;35657;51.204;-4.130;2023-03-01T13:42:49;4.03;;;1.60;;
49764;SDS011;35657;51.204;-4.130;2023-03-01T13:48:24;3.00;;;1.48;;
49764;SDS011;35657;51.204;-4.130;2023-03-01T13:50:58;4.32;;;1.77;;
49764;SDS011;35657;51.204;-4.130;2023-03-01T13:53:28;6.50;;;2.15;;
49764;SDS011;35657;51.204;-4.130;2023-03-01T13:55:59;3.58;;;1.90;;
49764;SDS011;35657;51.204;-4.130;2023-03-01T13:58:43;4.47;;;1.67;;
49764;SDS011;35657;51.204;-4.130;2023-03-01T14:01:30;4.55;;;1.25;;
49764;SDS011;35657;51.204;-4.130;2023-03-01T14:03:58;2.40;;;1.73;;
49764;SDS011;35657;51.204;-4.130;2023-03-01T14:09:29;3.55;;;1.40;;
49764;SDS011;35657;51.204;-4.130;2023-03-01T14:19:37;1.90;;;1.00;;
49764;SDS011;35657;51.204;-4.130;2023-03-01T14:24:38;2.10;;;1.38;;
49764;SDS011;35657;51.204;-4.130;2023-03-01T14:27:11;2.60;;;1.35;;
49764;SDS011;35657;51.204;-4.130;2023-03-01T14:29:38;3.03;;;1.65;;
49764;SDS011;35657;51.204;-4.130;2023-03-01T14:32:09;11.00;;;1.70;;
49764;SDS011;35657;51.204;-4.130;2023-03-01T14:34:35;3.53;;;2.05;;
49764;SDS011;35657;51.204;-4.130;2023-03-01T14:39:59;4.43;;;2.00;;
49764;SDS011;35657;51.204;-4.130;2023-03-01T14:42:29;3.78;;;1.88;;
49764;SDS011;35657;51.204;-4.130;2023-03-01T14:44:59;2.53;;;1.80;;
49764;SDS011;35657;51.204;-4.130;2023-03-01T14:47:28;5.90;;;2.30;;
49764;SDS011;35657;51.204;-4.130;2023-03-01T14:50:02;3.75;;;2.30;;
49764;SDS011;35657;51.204;-4.130;2023-03-01T14:52:46;2.53;;;1.55;;
49764;SDS011;35657;51.204;-4.130;2023-03-01T14:55:25;4.32;;;1.98;;
49764;SDS011;35657;51.204;-4.130;2023-03-01T14:58:05;2.95;;;1.63;;
49764;SDS011;35657;51.204;-4.130;2023-03-01T15:00:36;4.38;;;1.90;;
49764;SDS011;35657;51.204;-4.130;2023-03-01T15:03:12;2.95;;;1.67;;
49764;SDS011;35657;51.204;-4.130;2023-03-01T15:05:42;1.88;;;1.35;;
49764;SDS011;35657;51.204;-4.130;2023-03-01T15:08:15;3.20;;;1.88;;
49764;SDS011;35657;51.204;-4.130;2023-03-01T15:10:59;5.53;;;2.30;;
49764;SDS011;35657;51.204;-4.130;2023-03-01T15:13:29;3.08;;;2.05;;
49764;SDS011;35657;51.204;-4.130;2023-03-01T15:16:01;2.53;;;1.80;;
49764;SDS011;35657;51.204;-4.130;2023-03-01T15:18:30;4.00;;;2.10;;
49764;SDS011;35657;51.204;-4.130;2023-03-01T15:21:04;4.28;;;1.95;;
49764;SDS011;35657;51.204;-4.130;2023-03-01T15:23:32;3.28;;;1.80;;
49764;SDS011;35657;51.204;-4.130;2023-03-01T15:25:58;3.22;;;2.17;;
49764;SDS011;35657;51.204;-4.130;2023-03-01T15:28:29;3.75;;;1.98;;
49764;SDS011;35657;51.204;-4.130;2023-03-01T15:31:00;3.07;;;2.00;;
49764;SDS011;35657;51.204;-4.130;2023-03-01T15:33:37;3.80;;;1.70;;
49764;SDS011;35657;51.204;-4.130;2023-03-01T15:36:30;4.22;;;2.22;;
49764;SDS011;35657;51.204;-4.130;2023-03-01T15:38:59;2.78;;;1.98;;
49764;SDS011;35657;51.204;-4.130;2023-03-01T15:41:27;3.90;;;1.90;;
49764;SDS011;35657;51.204;-4.130;2023-03-01T15:44:13;6.38;;;2.08;;
49764;SDS011;35657;51.204;-4.130;2023-03-01T15:46:49;4.72;;;1.50;;
49764;SDS011;35657;51.204;-4.130;2023-03-01T15:49:25;2.88;;;2.03;;
49764;SDS011;35657;51.204;-4.130;2023-03-01T15:52:01;4.55;;;1.60;;
49764;SDS011;35657;51.204;-4.130;2023-03-01T15:54:27;5.25;;;1.77;;
49764;SDS011;35657;51.204;-4.130;2023-03-01T15:56:54;3.00;;;2.03;;
49764;SDS011;35657;51.204;-4.130;2023-03-01T15:59:20;7.15;;;1.88;;
49764;SDS011;35657;51.204;-4.130;2023-03-01T16:01:47;3.10;;;1.45;;
49764;SDS011;35657;51.204;-4.130;2023-03-01T16:04:15;3.85;;;1.48;;
49764;SDS011;35657;51.204;-4.130;2023-03-01T16:06:51;7.10;;;1.30;;
49764;SDS011;35657;51.204;-4.130;2023-03-01T16:09:21;3.90;;;1.85;;
49764;SDS011;35657;51.204;-4.130;2023-03-01T16:11:48;3.50;;;1.70;;
49764;SDS011;35657;51.204;-4.130;2023-03-01T16:14:15;2.75;;;1.42;;
49764;SDS011;35657;51.204;-4.130;2023-03-01T16:16:41;3.10;;;1.75;;
49764;SDS011;35657;51.204;-4.130;2023-03-01T16:19:07;2.47;;;1.70;;
49764;SDS011;35657;51.204;-4.130;2023-03-01T16:21:33;3.25;;;2.22;;
49764;SDS011;35657;51.204;-4.130;2023-03-01T16:23:58;4.63;;;2.00;;
49764;SDS011;35657;51.204;-4.130;2023-03-01T16:26:24;3.40;;;2.15;;
49764;SDS011;35657;51.204;-4.130;2023-03-01T16:28:50;3.42;;;2.00;;
49764;SDS011;35657;51.204;-4.130;2023-03-01T16:31:19;4.30;;;2.92;;
49764;SDS011;35657;51.204;-4.130;2023-03-01T16:33:44;4.45;;;1.48;;
49764;SDS011;35657;51.204;-4.130;2023-03-01T16:36:14;2.33;;;1.65;;
49764;SDS011;35657;51.204;-4.130;2023-03-01T16:38:42;4.07;;;1.60;;
49764;SDS011;35657;51.204;-4.130;2023-03-01T16:41:12;3.72;;;2.15;;
49764;SDS011;35657;51.204;-4.130;2023-03-01T16:43:39;5.70;;;2.13;;